sensor_id;sensor_type;location;lat;lon;timestamp;temperature;humidity
1461;DHT22;724;49.910;12.530;2024-02-14T00:00:04;-0.80;99.90
1461;DHT22;724;49.910;12.530;2024-02-14T00:02:31;-0.90;99.90
1461;DHT22;724;49.910;12.530;2024-02-14T00:04:59;-1.00;99.90
1461;DHT22;724;49.910;12.530;2024-02-14T00:07:25;-1.00;99.90
1461;DHT22;724;49.910;12.530;2024-02-14T00:09:52;-1.00;99.90
1461;DHT22;724;49.910;12.530;2024-02-14T00:12:20;-1.00;99.90
1461;DHT22;724;49.910;12.530;2024-02-14T00:14:46;-1.00;99.90
1461;DHT22;724;49.910;12.530;2024-02-14T00:17:15;-1.00;99.90
1461;DHT22;724;49.910;12.530;2024-02-14T00:19:42;-1.10;99.90
1461;DHT22;724;49.910;12.530;2024-02-14T00:22:09;-1.10;99.90
1461;DHT22;724;49.910;12.530;2024-02-14T00:24:36;-1.00;99.90
1461;DHT22;724;49.910;12.530;2024-02-14T00:27:03;-1.10;99.90
1461;DHT22;724;49.910;12.530;2024-02-14T00:29:30;-1.00;99.90
1461;DHT22;724;49.910;12.530;2024-02-14T00:31:59;-0.90;99.90
1461;DHT22;724;49.910;12.530;2024-02-14T00:34:27;-0.80;99.90
1461;DHT22;724;49.910;12.530;2024-02-14T00:36:54;-0.80;99.90
1461;DHT22;724;49.910;12.530;2024-02-14T00:39:21;-0.70;99.90
1461;DHT22;724;49.910;12.530;2024-02-14T00:41:47;-0.70;99.90
1461;DHT22;724;49.910;12.530;2024-02-14T00:44:15;-0.70;99.90
1461;DHT22;724;49.910;12.530;2024-02-14T00:46:44;-0.60;99.90
1461;DHT22;724;49.910;12.530;2024-02-14T00:49:11;-0.50;99.90
1461;DHT22;724;49.910;12.530;2024-02-14T00:51:40;-0.40;99.90
1461;DHT22;724;49.910;12.530;2024-02-14T00:54:07;-0.30;99.90
1461;DHT22;724;49.910;12.530;2024-02-14T00:56:34;-0.30;99.90
1461;DHT22;724;49.910;12.530;2024-02-14T00:59:01;-0.60;99.90
1461;DHT22;724;49.910;12.530;2024-02-14T01:01:28;-0.80;99.90
1461;DHT22;724;49.910;12.530;2024-02-14T01:03:55;-0.90;99.90
1461;DHT22;724;49.910;12.530;2024-02-14T01:06:21;-1.00;99.90
1461;DHT22;724;49.910;12.530;2024-02-14T01:08:49;-1.00;99.90
1461;DHT22;724;49.910;12.530;2024-02-14T01:11:16;-1.00;99.90
1461;DHT22;724;49.910;12.530;2024-02-14T01:13:43;-1.00;99.90
1461;DHT22;724;49.910;12.530;2024-02-14T01:16:10;-1.00;99.90
1461;DHT22;724;49.910;12.530;2024-02-14T01:18:37;-1.00;99.90
1461;DHT22;724;49.910;12.530;2024-02-14T01:21:04;-0.90;99.90
1461;DHT22;724;49.910;12.530;2024-02-14T01:23:31;-0.80;99.90
1461;DHT22;724;49.910;12.530;2024-02-14T01:25:59;-0.80;99.90
1461;DHT22;724;49.910;12.530;2024-02-14T01:28:27;-0.70;99.90
1461;DHT22;724;49.910;12.530;2024-02-14T01:30:54;-0.60;99.90
1461;DHT22;724;49.910;12.530;2024-02-14T01:33:22;-0.60;99.90
1461;DHT22;724;49.910;12.530;2024-02-14T01:35:49;-0.60;99.90
1461;DHT22;724;49.910;12.530;2024-02-14T01:38:16;-0.60;99.90
1461;DHT22;724;49.910;12.530;2024-02-14T01:40:43;-0.60;99.90
1461;DHT22;724;49.910;12.530;2024-02-14T01:43:12;-0.60;99.90
1461;DHT22;724;49.910;12.530;2024-02-14T01:45:40;-0.50;99.90
1461;DHT22;724;49.910;12.530;2024-02-14T01:48:08;-0.50;99.90
1461;DHT22;724;49.910;12.530;2024-02-14T01:50:35;-0.40;99.90
1461;DHT22;724;49.910;12.530;2024-02-14T01:53:02;-0.40;99.90
1461;DHT22;724;49.910;12.530;2024-02-14T01:55:30;-0.30;99.90
1461;DHT22;724;49.910;12.530;2024-02-14T01:57:57;-0.20;99.90
1461;DHT22;724;49.910;12.530;2024-02-14T02:00:26;-0.10;99.90
1461;DHT22;724;49.910;12.530;2024-02-14T02:02:53;0.00;99.90
1461;DHT22;724;49.910;12.530;2024-02-14T02:05:21;0.20;99.90
1461;DHT22;724;49.910;12.530;2024-02-14T02:07:48;0.30;99.90
1461;DHT22;724;49.910;12.530;2024-02-14T02:10:15;0.00;99.90
1461;DHT22;724;49.910;12.530;2024-02-14T02:12:42;-0.10;99.90
1461;DHT22;724;49.910;12.530;2024-02-14T02:15:09;0.00;99.90
1461;DHT22;724;49.910;12.530;2024-02-14T02:17:42;0.00;99.90
1461;DHT22;724;49.910;12.530;2024-02-14T02:20:11;0.40;99.90
1461;DHT22;724;49.910;12.530;2024-02-14T02:22:45;0.50;99.90
1461;DHT22;724;49.910;12.530;2024-02-14T02:25:13;0.70;99.90
1461;DHT22;724;49.910;12.530;2024-02-14T02:27:40;0.80;99.90
1461;DHT22;724;49.910;12.530;2024-02-14T02:30:07;0.90;99.90
1461;DHT22;724;49.910;12.530;2024-02-14T02:32:35;0.90;99.90
1461;DHT22;724;49.910;12.530;2024-02-14T02:35:03;0.90;99.90
1461;DHT22;724;49.910;12.530;2024-02-14T02:37:30;1.10;99.90
1461;DHT22;724;49.910;12.530;2024-02-14T02:39:59;1.20;99.90
1461;DHT22;724;49.910;12.530;2024-02-14T02:42:25;1.20;99.90
1461;DHT22;724;49.910;12.530;2024-02-14T02:44:53;0.90;99.90
1461;DHT22;724;49.910;12.530;2024-02-14T02:47:19;0.80;99.90
1461;DHT22;724;49.910;12.530;2024-02-14T02:49:46;0.70;99.90
1461;DHT22;724;49.910;12.530;2024-02-14T02:52:13;0.90;99.90
1461;DHT22;724;49.910;12.530;2024-02-14T02:54:40;0.90;99.90
1461;DHT22;724;49.910;12.530;2024-02-14T02:57:10;0.80;99.90
1461;DHT22;724;49.910;12.530;2024-02-14T02:59:37;0.90;99.90
1461;DHT22;724;49.910;12.530;2024-02-14T03:02:07;0.90;99.90
1461;DHT22;724;49.910;12.530;2024-02-14T03:04:34;0.80;99.90
1461;DHT22;724;49.910;12.530;2024-02-14T03:07:01;0.70;99.90
1461;DHT22;724;49.910;12.530;2024-02-14T03:09:32;0.60;99.90
1461;DHT22;724;49.910;12.530;2024-02-14T03:11:58;0.40;99.90
1461;DHT22;724;49.910;12.530;2024-02-14T03:14:28;0.20;99.90
1461;DHT22;724;49.910;12.530;2024-02-14T03:16:58;0.30;99.90
1461;DHT22;724;49.910;12.530;2024-02-14T03:19:25;0.30;99.90
1461;DHT22;724;49.910;12.530;2024-02-14T03:21:53;0.20;99.90
1461;DHT22;724;49.910;12.530;2024-02-14T03:24:20;0.20;99.90
1461;DHT22;724;49.910;12.530;2024-02-14T03:26:47;0.30;99.90
1461;DHT22;724;49.910;12.530;2024-02-14T03:29:16;0.40;99.90
1461;DHT22;724;49.910;12.530;2024-02-14T03:31:46;0.50;99.90
1461;DHT22;724;49.910;12.530;2024-02-14T03:34:13;0.50;99.90
1461;DHT22;724;49.910;12.530;2024-02-14T03:36:40;0.50;99.90
1461;DHT22;724;49.910;12.530;2024-02-14T03:39:08;0.60;99.90
1461;DHT22;724;49.910;12.530;2024-02-14T03:41:36;0.60;99.90
1461;DHT22;724;49.910;12.530;2024-02-14T03:44:03;0.60;99.90
1461;DHT22;724;49.910;12.530;2024-02-14T03:46:32;0.70;99.90
1461;DHT22;724;49.910;12.530;2024-02-14T03:49:02;0.60;99.90
1461;DHT22;724;49.910;12.530;2024-02-14T03:51:28;0.60;99.90
1461;DHT22;724;49.910;12.530;2024-02-14T03:53:55;0.40;99.90
1461;DHT22;724;49.910;12.530;2024-02-14T03:56:22;0.30;99.90
1461;DHT22;724;49.910;12.530;2024-02-14T03:58:49;0.30;99.90
1461;DHT22;724;49.910;12.530;2024-02-14T04:01:16;0.10;99.90
1461;DHT22;724;49.910;12.530;2024-02-14T04:03:46;0.20;99.90
1461;DHT22;724;49.910;12.530;2024-02-14T04:06:15;0.00;99.90
1461;DHT22;724;49.910;12.530;2024-02-14T04:08:42;0.00;99.90
1461;DHT22;724;49.910;12.530;2024-02-14T04:11:09;0.00;99.90
1461;DHT22;724;49.910;12.530;2024-02-14T04:13:35;0.00;99.90
1461;DHT22;724;49.910;12.530;2024-02-14T04:16:02;0.00;99.90
1461;DHT22;724;49.910;12.530;2024-02-14T04:18:29;0.10;99.90
1461;DHT22;724;49.910;12.530;2024-02-14T04:20:56;0.10;99.90
1461;DHT22;724;49.910;12.530;2024-02-14T04:23:24;0.10;99.90
1461;DHT22;724;49.910;12.530;2024-02-14T04:25:51;0.20;99.90
1461;DHT22;724;49.910;12.530;2024-02-14T04:28:18;0.30;99.90
1461;DHT22;724;49.910;12.530;2024-02-14T04:30:44;0.40;99.90
1461;DHT22;724;49.910;12.530;2024-02-14T04:33:11;0.40;99.90
1461;DHT22;724;49.910;12.530;2024-02-14T04:35:39;0.50;99.90
1461;DHT22;724;49.910;12.530;2024-02-14T04:38:06;0.60;99.90
1461;DHT22;724;49.910;12.530;2024-02-14T04:40:35;0.60;99.90
1461;DHT22;724;49.910;12.530;2024-02-14T04:43:03;0.60;99.90
1461;DHT22;724;49.910;12.530;2024-02-14T04:45:30;0.40;99.90
1461;DHT22;724;49.910;12.530;2024-02-14T04:47:56;0.40;99.90
1461;DHT22;724;49.910;12.530;2024-02-14T04:50:23;0.40;99.90
1461;DHT22;724;49.910;12.530;2024-02-14T04:52:50;0.30;99.90
1461;DHT22;724;49.910;12.530;2024-02-14T04:55:17;0.40;99.90
1461;DHT22;724;49.910;12.530;2024-02-14T04:57:45;0.40;99.90
1461;DHT22;724;49.910;12.530;2024-02-14T05:00:13;0.30;99.90
1461;DHT22;724;49.910;12.530;2024-02-14T05:02:40;0.40;99.90
1461;DHT22;724;49.910;12.530;2024-02-14T05:05:06;0.40;99.90
1461;DHT22;724;49.910;12.530;2024-02-14T05:07:34;0.40;99.90
1461;DHT22;724;49.910;12.530;2024-02-14T05:10:00;0.50;99.90
1461;DHT22;724;49.910;12.530;2024-02-14T05:12:27;0.50;99.90
1461;DHT22;724;49.910;12.530;2024-02-14T05:14:55;0.50;99.90
1461;DHT22;724;49.910;12.530;2024-02-14T05:17:22;0.60;99.90
1461;DHT22;724;49.910;12.530;2024-02-14T05:19:49;0.50;99.90
1461;DHT22;724;49.910;12.530;2024-02-14T05:22:16;0.60;99.90
1461;DHT22;724;49.910;12.530;2024-02-14T05:24:43;0.60;99.90
1461;DHT22;724;49.910;12.530;2024-02-14T05:27:10;0.50;99.90
1461;DHT22;724;49.910;12.530;2024-02-14T05:29:37;0.40;99.90
1461;DHT22;724;49.910;12.530;2024-02-14T05:32:06;0.40;99.90
1461;DHT22;724;49.910;12.530;2024-02-14T05:34:34;0.40;99.90
1461;DHT22;724;49.910;12.530;2024-02-14T05:37:01;0.40;99.90
1461;DHT22;724;49.910;12.530;2024-02-14T05:39:28;0.50;99.90
1461;DHT22;724;49.910;12.530;2024-02-14T05:41:55;0.50;99.90
1461;DHT22;724;49.910;12.530;2024-02-14T05:44:21;0.60;99.90
1461;DHT22;724;49.910;12.530;2024-02-14T05:46:48;0.70;99.90
1461;DHT22;724;49.910;12.530;2024-02-14T05:49:16;0.70;99.90
1461;DHT22;724;49.910;12.530;2024-02-14T05:51:43;0.80;99.90
1461;DHT22;724;49.910;12.530;2024-02-14T05:54:10;0.80;99.90
1461;DHT22;724;49.910;12.530;2024-02-14T05:56:36;0.90;99.90
1461;DHT22;724;49.910;12.530;2024-02-14T05:59:03;1.00;99.90
1461;DHT22;724;49.910;12.530;2024-02-14T06:01:30;1.00;99.90
1461;DHT22;724;49.910;12.530;2024-02-14T06:03:57;1.00;99.90
1461;DHT22;724;49.910;12.530;2024-02-14T06:06:25;1.00;99.90
1461;DHT22;724;49.910;12.530;2024-02-14T06:08:52;1.00;99.90
1461;DHT22;724;49.910;12.530;2024-02-14T06:11:18;1.10;99.90
1461;DHT22;724;49.910;12.530;2024-02-14T06:13:46;1.10;99.90
1461;DHT22;724;49.910;12.530;2024-02-14T06:16:13;1.20;99.90
1461;DHT22;724;49.910;12.530;2024-02-14T06:18:40;1.20;99.90
1461;DHT22;724;49.910;12.530;2024-02-14T06:21:07;1.30;99.90
1461;DHT22;724;49.910;12.530;2024-02-14T06:23:36;1.40;99.90
1461;DHT22;724;49.910;12.530;2024-02-14T06:26:04;1.30;99.90
1461;DHT22;724;49.910;12.530;2024-02-14T06:28:31;1.50;99.90
1461;DHT22;724;49.910;12.530;2024-02-14T06:30:58;1.80;99.90
1461;DHT22;724;49.910;12.530;2024-02-14T06:33:26;2.00;99.90
1461;DHT22;724;49.910;12.530;2024-02-14T06:35:52;2.20;99.90
1461;DHT22;724;49.910;12.530;2024-02-14T06:38:19;2.30;99.90
1461;DHT22;724;49.910;12.530;2024-02-14T06:40:47;2.40;99.90
1461;DHT22;724;49.910;12.530;2024-02-14T06:43:14;2.30;99.90
1461;DHT22;724;49.910;12.530;2024-02-14T06:45:41;2.30;99.90
1461;DHT22;724;49.910;12.530;2024-02-14T06:48:09;2.30;99.90
1461;DHT22;724;49.910;12.530;2024-02-14T06:50:35;2.30;99.90
1461;DHT22;724;49.910;12.530;2024-02-14T06:53:02;2.10;99.90
1461;DHT22;724;49.910;12.530;2024-02-14T06:55:29;2.10;99.90
1461;DHT22;724;49.910;12.530;2024-02-14T06:57:59;2.20;99.90
1461;DHT22;724;49.910;12.530;2024-02-14T07:00:25;2.10;99.90
1461;DHT22;724;49.910;12.530;2024-02-14T07:02:53;2.20;99.90
1461;DHT22;724;49.910;12.530;2024-02-14T07:05:20;2.20;99.90
1461;DHT22;724;49.910;12.530;2024-02-14T07:07:47;2.20;99.90
1461;DHT22;724;49.910;12.530;2024-02-14T07:10:14;2.20;99.90
1461;DHT22;724;49.910;12.530;2024-02-14T07:12:40;2.30;67.70
1461;DHT22;724;49.910;12.530;2024-02-14T07:15:08;2.40;1.00
1461;DHT22;724;49.910;12.530;2024-02-14T07:17:35;2.50;1.00
1461;DHT22;724;49.910;12.530;2024-02-14T07:20:04;2.50;1.00
1461;DHT22;724;49.910;12.530;2024-02-14T07:22:33;2.50;1.00
1461;DHT22;724;49.910;12.530;2024-02-14T07:25:00;2.50;1.00
1461;DHT22;724;49.910;12.530;2024-02-14T07:27:27;2.60;1.00
1461;DHT22;724;49.910;12.530;2024-02-14T07:29:53;2.60;1.00
1461;DHT22;724;49.910;12.530;2024-02-14T07:32:21;2.50;1.00
1461;DHT22;724;49.910;12.530;2024-02-14T07:34:48;2.60;1.00
1461;DHT22;724;49.910;12.530;2024-02-14T07:37:15;2.60;1.00
1461;DHT22;724;49.910;12.530;2024-02-14T07:39:45;2.70;1.00
1461;DHT22;724;49.910;12.530;2024-02-14T07:42:12;2.80;1.00
1461;DHT22;724;49.910;12.530;2024-02-14T07:44:38;2.90;99.90
1461;DHT22;724;49.910;12.530;2024-02-14T07:47:05;2.90;99.90
1461;DHT22;724;49.910;12.530;2024-02-14T07:49:33;3.00;99.90
1461;DHT22;724;49.910;12.530;2024-02-14T07:52:00;3.10;1.00
1461;DHT22;724;49.910;12.530;2024-02-14T07:54:27;3.40;1.00
1461;DHT22;724;49.910;12.530;2024-02-14T07:56:54;3.50;1.00
1461;DHT22;724;49.910;12.530;2024-02-14T07:59:21;3.70;99.90
1461;DHT22;724;49.910;12.530;2024-02-14T08:01:47;3.70;99.90
1461;DHT22;724;49.910;12.530;2024-02-14T08:04:14;3.90;93.30
1461;DHT22;724;49.910;12.530;2024-02-14T08:06:44;3.90;1.00
1461;DHT22;724;49.910;12.530;2024-02-14T08:09:11;4.00;1.00
1461;DHT22;724;49.910;12.530;2024-02-14T08:11:38;4.10;1.00
1461;DHT22;724;49.910;12.530;2024-02-14T08:14:05;4.20;1.00
1461;DHT22;724;49.910;12.530;2024-02-14T08:16:31;5.80;99.90
1461;DHT22;724;49.910;12.530;2024-02-14T08:18:58;7.00;1.00
1461;DHT22;724;49.910;12.530;2024-02-14T08:21:25;8.00;99.90
1461;DHT22;724;49.910;12.530;2024-02-14T08:23:53;8.10;1.00
1461;DHT22;724;49.910;12.530;2024-02-14T08:26:20;8.50;1.00
1461;DHT22;724;49.910;12.530;2024-02-14T08:28:48;7.80;99.90
1461;DHT22;724;49.910;12.530;2024-02-14T08:31:14;6.50;99.90
1461;DHT22;724;49.910;12.530;2024-02-14T08:33:41;5.40;1.00
1461;DHT22;724;49.910;12.530;2024-02-14T08:36:08;5.00;1.00
1461;DHT22;724;49.910;12.530;2024-02-14T08:38:35;4.90;1.00
1461;DHT22;724;49.910;12.530;2024-02-14T08:41:03;4.90;1.00
1461;DHT22;724;49.910;12.530;2024-02-14T08:43:30;4.90;1.00
1461;DHT22;724;49.910;12.530;2024-02-14T08:45:58;4.80;1.00
1461;DHT22;724;49.910;12.530;2024-02-14T08:48:24;4.90;1.00
1461;DHT22;724;49.910;12.530;2024-02-14T08:50:52;4.70;1.00
1461;DHT22;724;49.910;12.530;2024-02-14T08:53:19;4.60;1.00
1461;DHT22;724;49.910;12.530;2024-02-14T08:55:46;4.60;15.40
1461;DHT22;724;49.910;12.530;2024-02-14T08:58:14;4.70;94.10
1461;DHT22;724;49.910;12.530;2024-02-14T09:00:41;4.90;99.90
1461;DHT22;724;49.910;12.530;2024-02-14T09:03:07;4.90;1.00
1461;DHT22;724;49.910;12.530;2024-02-14T09:05:34;5.00;15.00
1461;DHT22;724;49.910;12.530;2024-02-14T09:08:03;5.00;1.00
1461;DHT22;724;49.910;12.530;2024-02-14T09:10:29;4.80;1.00
1461;DHT22;724;49.910;12.530;2024-02-14T09:12:56;4.80;22.80
1461;DHT22;724;49.910;12.530;2024-02-14T09:15:24;4.80;85.50
1461;DHT22;724;49.910;12.530;2024-02-14T09:17:52;4.90;87.90
1461;DHT22;724;49.910;12.530;2024-02-14T09:20:18;4.80;99.90
1461;DHT22;724;49.910;12.530;2024-02-14T09:22:46;5.00;99.90
1461;DHT22;724;49.910;12.530;2024-02-14T09:25:13;5.20;99.90
1461;DHT22;724;49.910;12.530;2024-02-14T09:27:40;5.40;99.90
1461;DHT22;724;49.910;12.530;2024-02-14T09:30:09;5.40;58.80
1461;DHT22;724;49.910;12.530;2024-02-14T09:32:37;5.20;96.30
1461;DHT22;724;49.910;12.530;2024-02-14T09:35:05;5.30;80.90
1461;DHT22;724;49.910;12.530;2024-02-14T09:37:32;5.30;73.00
1461;DHT22;724;49.910;12.530;2024-02-14T09:39:59;5.20;99.90
1461;DHT22;724;49.910;12.530;2024-02-14T09:42:31;5.40;99.90
1461;DHT22;724;49.910;12.530;2024-02-14T09:45:01;5.20;99.90
1461;DHT22;724;49.910;12.530;2024-02-14T09:47:30;5.30;99.90
1461;DHT22;724;49.910;12.530;2024-02-14T09:50:01;5.40;99.90
1461;DHT22;724;49.910;12.530;2024-02-14T09:52:32;5.60;99.90
1461;DHT22;724;49.910;12.530;2024-02-14T09:55:00;5.70;1.00
1461;DHT22;724;49.910;12.530;2024-02-14T09:57:29;5.40;43.60
1461;DHT22;724;49.910;12.530;2024-02-14T09:59:56;5.30;99.90
1461;DHT22;724;49.910;12.530;2024-02-14T10:02:23;5.20;99.90
1461;DHT22;724;49.910;12.530;2024-02-14T10:04:50;5.30;99.90
1461;DHT22;724;49.910;12.530;2024-02-14T10:07:19;5.20;99.90
1461;DHT22;724;49.910;12.530;2024-02-14T10:09:45;5.20;99.90
1461;DHT22;724;49.910;12.530;2024-02-14T10:12:14;5.10;99.90
1461;DHT22;724;49.910;12.530;2024-02-14T10:14:40;5.10;1.00
1461;DHT22;724;49.910;12.530;2024-02-14T10:17:08;5.00;1.00
1461;DHT22;724;49.910;12.530;2024-02-14T10:19:35;5.00;1.00
1461;DHT22;724;49.910;12.530;2024-02-14T10:22:02;5.10;1.00
1461;DHT22;724;49.910;12.530;2024-02-14T10:24:32;5.00;1.00
1461;DHT22;724;49.910;12.530;2024-02-14T10:26:59;5.20;1.00
1461;DHT22;724;49.910;12.530;2024-02-14T10:29:26;5.40;1.00
1461;DHT22;724;49.910;12.530;2024-02-14T10:31:53;5.30;1.00
1461;DHT22;724;49.910;12.530;2024-02-14T10:34:24;5.20;1.00
1461;DHT22;724;49.910;12.530;2024-02-14T10:36:52;5.20;1.00
1461;DHT22;724;49.910;12.530;2024-02-14T10:39:20;5.00;99.90
1461;DHT22;724;49.910;12.530;2024-02-14T10:41:49;4.90;99.90
1461;DHT22;724;49.910;12.530;2024-02-14T10:44:16;4.80;1.00
1461;DHT22;724;49.910;12.530;2024-02-14T10:46:44;4.80;1.00
1461;DHT22;724;49.910;12.530;2024-02-14T10:49:14;4.70;99.90
1461;DHT22;724;49.910;12.530;2024-02-14T10:51:43;4.80;1.00
1461;DHT22;724;49.910;12.530;2024-02-14T10:54:14;4.90;1.00
1461;DHT22;724;49.910;12.530;2024-02-14T10:56:47;4.90;1.00
1461;DHT22;724;49.910;12.530;2024-02-14T10:59:18;4.80;1.00
1461;DHT22;724;49.910;12.530;2024-02-14T11:01:48;4.80;37.40
1461;DHT22;724;49.910;12.530;2024-02-14T11:04:16;4.90;99.90
1461;DHT22;724;49.910;12.530;2024-02-14T11:06:46;5.00;83.20
1461;DHT22;724;49.910;12.530;2024-02-14T11:09:14;5.00;99.90
1461;DHT22;724;49.910;12.530;2024-02-14T11:11:42;5.00;99.90
1461;DHT22;724;49.910;12.530;2024-02-14T11:14:09;5.00;99.90
1461;DHT22;724;49.910;12.530;2024-02-14T11:16:38;5.00;99.90
1461;DHT22;724;49.910;12.530;2024-02-14T11:19:06;5.10;99.90
1461;DHT22;724;49.910;12.530;2024-02-14T11:21:36;5.10;99.90
1461;DHT22;724;49.910;12.530;2024-02-14T11:24:06;4.90;1.00
1461;DHT22;724;49.910;12.530;2024-02-14T11:26:45;5.10;1.00
1461;DHT22;724;49.910;12.530;2024-02-14T11:29:14;5.00;1.00
1461;DHT22;724;49.910;12.530;2024-02-14T11:31:44;5.00;1.00
1461;DHT22;724;49.910;12.530;2024-02-14T11:34:12;5.20;1.00
1461;DHT22;724;49.910;12.530;2024-02-14T11:36:41;5.20;1.00
1461;DHT22;724;49.910;12.530;2024-02-14T11:39:09;5.50;1.00
1461;DHT22;724;49.910;12.530;2024-02-14T11:41:38;5.40;99.90
1461;DHT22;724;49.910;12.530;2024-02-14T11:44:05;5.60;99.90
1461;DHT22;724;49.910;12.530;2024-02-14T11:46:32;5.50;99.90
1461;DHT22;724;49.910;12.530;2024-02-14T11:49:01;5.50;1.00
1461;DHT22;724;49.910;12.530;2024-02-14T11:51:29;5.60;1.00
1461;DHT22;724;49.910;12.530;2024-02-14T11:53:56;5.60;1.00
1461;DHT22;724;49.910;12.530;2024-02-14T11:56:23;5.60;1.00
1461;DHT22;724;49.910;12.530;2024-02-14T11:58:51;5.60;1.00
1461;DHT22;724;49.910;12.530;2024-02-14T12:01:22;5.60;1.00
1461;DHT22;724;49.910;12.530;2024-02-14T12:03:49;5.60;1.00
1461;DHT22;724;49.910;12.530;2024-02-14T12:06:17;5.60;1.00
1461;DHT22;724;49.910;12.530;2024-02-14T12:08:44;5.40;1.00
1461;DHT22;724;49.910;12.530;2024-02-14T12:11:11;5.40;1.00
1461;DHT22;724;49.910;12.530;2024-02-14T12:13:38;5.20;1.00
1461;DHT22;724;49.910;12.530;2024-02-14T12:16:11;5.40;1.00
1461;DHT22;724;49.910;12.530;2024-02-14T12:18:40;5.40;1.00
1461;DHT22;724;49.910;12.530;2024-02-14T12:21:07;5.60;1.00
1461;DHT22;724;49.910;12.530;2024-02-14T12:23:35;5.80;1.00
1461;DHT22;724;49.910;12.530;2024-02-14T12:26:03;5.80;1.00
1461;DHT22;724;49.910;12.530;2024-02-14T12:28:30;5.80;1.00
1461;DHT22;724;49.910;12.530;2024-02-14T12:30:58;5.50;1.00
1461;DHT22;724;49.910;12.530;2024-02-14T12:33:26;5.60;1.00
1461;DHT22;724;49.910;12.530;2024-02-14T12:35:54;5.60;1.00
1461;DHT22;724;49.910;12.530;2024-02-14T12:38:21;5.60;1.00
1461;DHT22;724;49.910;12.530;2024-02-14T12:40:50;5.60;1.00
1461;DHT22;724;49.910;12.530;2024-02-14T12:43:19;5.40;1.00
1461;DHT22;724;49.910;12.530;2024-02-14T12:45:46;5.20;99.90
1461;DHT22;724;49.910;12.530;2024-02-14T12:48:22;5.20;1.00
1461;DHT22;724;49.910;12.530;2024-02-14T12:50:49;5.20;1.00
1461;DHT22;724;49.910;12.530;2024-02-14T12:53:17;5.20;1.00
1461;DHT22;724;49.910;12.530;2024-02-14T12:55:45;5.10;1.00
1461;DHT22;724;49.910;12.530;2024-02-14T12:58:14;5.20;1.00
1461;DHT22;724;49.910;12.530;2024-02-14T13:00:41;5.40;1.00
1461;DHT22;724;49.910;12.530;2024-02-14T13:03:10;5.30;1.00
1461;DHT22;724;49.910;12.530;2024-02-14T13:05:37;5.30;1.00
1461;DHT22;724;49.910;12.530;2024-02-14T13:08:05;5.30;1.00
1461;DHT22;724;49.910;12.530;2024-02-14T13:10:32;5.30;1.00
1461;DHT22;724;49.910;12.530;2024-02-14T13:12:59;5.30;1.00
1461;DHT22;724;49.910;12.530;2024-02-14T13:15:27;5.40;37.20
1461;DHT22;724;49.910;12.530;2024-02-14T13:17:54;5.50;91.90
1461;DHT22;724;49.910;12.530;2024-02-14T13:20:21;5.70;1.00
1461;DHT22;724;49.910;12.530;2024-02-14T13:22:48;5.50;1.00
1461;DHT22;724;49.910;12.530;2024-02-14T13:25:15;5.50;1.00
1461;DHT22;724;49.910;12.530;2024-02-14T13:27:43;5.40;1.00
1461;DHT22;724;49.910;12.530;2024-02-14T13:30:10;5.50;5.40
1461;DHT22;724;49.910;12.530;2024-02-14T13:32:38;5.60;1.00
1461;DHT22;724;49.910;12.530;2024-02-14T13:35:06;5.50;16.00
1461;DHT22;724;49.910;12.530;2024-02-14T13:37:33;5.50;64.30
1461;DHT22;724;49.910;12.530;2024-02-14T13:40:00;5.50;99.90
1461;DHT22;724;49.910;12.530;2024-02-14T13:42:29;5.50;99.90
1461;DHT22;724;49.910;12.530;2024-02-14T13:44:56;5.70;99.90
1461;DHT22;724;49.910;12.530;2024-02-14T13:47:23;5.80;87.60
1461;DHT22;724;49.910;12.530;2024-02-14T13:49:51;5.70;1.00
1461;DHT22;724;49.910;12.530;2024-02-14T13:52:18;5.60;1.00
1461;DHT22;724;49.910;12.530;2024-02-14T13:54:45;5.60;99.90
1461;DHT22;724;49.910;12.530;2024-02-14T13:57:12;5.60;99.90
1461;DHT22;724;49.910;12.530;2024-02-14T13:59:39;5.60;99.90
1461;DHT22;724;49.910;12.530;2024-02-14T14:02:07;5.60;99.90
1461;DHT22;724;49.910;12.530;2024-02-14T14:04:35;5.60;99.90
1461;DHT22;724;49.910;12.530;2024-02-14T14:07:03;5.50;99.90
1461;DHT22;724;49.910;12.530;2024-02-14T14:09:30;5.40;99.90
1461;DHT22;724;49.910;12.530;2024-02-14T14:11:58;5.50;99.90
1461;DHT22;724;49.910;12.530;2024-02-14T14:14:25;5.40;99.90
1461;DHT22;724;49.910;12.530;2024-02-14T14:16:52;5.30;99.90
1461;DHT22;724;49.910;12.530;2024-02-14T14:19:19;5.30;99.90
1461;DHT22;724;49.910;12.530;2024-02-14T14:21:46;5.40;99.90
1461;DHT22;724;49.910;12.530;2024-02-14T14:24:14;5.50;99.90
1461;DHT22;724;49.910;12.530;2024-02-14T14:26:41;5.50;99.90
1461;DHT22;724;49.910;12.530;2024-02-14T14:29:09;5.30;99.90
1461;DHT22;724;49.910;12.530;2024-02-14T14:31:36;5.40;99.90
1461;DHT22;724;49.910;12.530;2024-02-14T14:34:03;5.40;99.90
1461;DHT22;724;49.910;12.530;2024-02-14T14:36:29;5.40;99.90
1461;DHT22;724;49.910;12.530;2024-02-14T14:38:56;5.40;99.90
1461;DHT22;724;49.910;12.530;2024-02-14T14:41:24;5.40;99.90
1461;DHT22;724;49.910;12.530;2024-02-14T14:43:51;5.50;99.90
1461;DHT22;724;49.910;12.530;2024-02-14T14:46:18;5.30;99.90
1461;DHT22;724;49.910;12.530;2024-02-14T14:48:45;5.30;99.90
1461;DHT22;724;49.910;12.530;2024-02-14T14:51:12;5.40;99.90
1461;DHT22;724;49.910;12.530;2024-02-14T14:53:38;5.40;99.90
1461;DHT22;724;49.910;12.530;2024-02-14T14:56:06;5.40;99.90
1461;DHT22;724;49.910;12.530;2024-02-14T14:58:34;5.40;99.90
1461;DHT22;724;49.910;12.530;2024-02-14T15:01:01;5.50;99.90
1461;DHT22;724;49.910;12.530;2024-02-14T15:03:30;5.50;99.90
1461;DHT22;724;49.910;12.530;2024-02-14T15:05:57;5.50;99.90
1461;DHT22;724;49.910;12.530;2024-02-14T15:08:24;5.40;99.90
1461;DHT22;724;49.910;12.530;2024-02-14T15:10:53;5.40;99.90
1461;DHT22;724;49.910;12.530;2024-02-14T15:13:21;5.40;99.90
1461;DHT22;724;49.910;12.530;2024-02-14T15:15:49;5.30;99.90
1461;DHT22;724;49.910;12.530;2024-02-14T15:18:16;5.40;99.90
1461;DHT22;724;49.910;12.530;2024-02-14T15:20:42;5.50;99.90
1461;DHT22;724;49.910;12.530;2024-02-14T15:23:09;5.50;99.90
1461;DHT22;724;49.910;12.530;2024-02-14T15:25:36;5.50;99.90
1461;DHT22;724;49.910;12.530;2024-02-14T15:28:10;5.50;99.90
1461;DHT22;724;49.910;12.530;2024-02-14T15:30:39;5.50;99.90
1461;DHT22;724;49.910;12.530;2024-02-14T15:33:30;5.50;99.90
1461;DHT22;724;49.910;12.530;2024-02-14T15:35:57;5.60;99.90
1461;DHT22;724;49.910;12.530;2024-02-14T15:38:25;5.60;99.90
1461;DHT22;724;49.910;12.530;2024-02-14T15:40:54;5.60;99.90
1461;DHT22;724;49.910;12.530;2024-02-14T15:43:23;5.60;99.90
1461;DHT22;724;49.910;12.530;2024-02-14T15:45:50;5.70;99.90
1461;DHT22;724;49.910;12.530;2024-02-14T15:48:17;5.70;99.90
1461;DHT22;724;49.910;12.530;2024-02-14T15:50:46;5.70;99.90
1461;DHT22;724;49.910;12.530;2024-02-14T15:53:14;5.70;99.90
1461;DHT22;724;49.910;12.530;2024-02-14T15:55:41;5.80;99.90
1461;DHT22;724;49.910;12.530;2024-02-14T15:58:08;5.70;99.90
1461;DHT22;724;49.910;12.530;2024-02-14T16:00:35;5.70;99.90
1461;DHT22;724;49.910;12.530;2024-02-14T16:03:02;5.70;99.90
1461;DHT22;724;49.910;12.530;2024-02-14T16:05:30;5.60;99.90
1461;DHT22;724;49.910;12.530;2024-02-14T16:07:59;5.60;99.90
1461;DHT22;724;49.910;12.530;2024-02-14T16:10:26;5.60;99.90
1461;DHT22;724;49.910;12.530;2024-02-14T16:12:53;5.60;99.90
1461;DHT22;724;49.910;12.530;2024-02-14T16:15:20;5.50;99.90
1461;DHT22;724;49.910;12.530;2024-02-14T16:17:47;5.60;99.90
1461;DHT22;724;49.910;12.530;2024-02-14T16:20:14;5.60;99.90